Time;durP1;ratioP1;P1;durP2;ratioP2;P2;SDS_P1;SDS_P2;PMS_P1;PMS_P2;Temp;Humidity;BMP_temperature;BMP_pressure;BME280_temperature;BME280_humidity;BME280_pressure;Samples;Min_cycle;Max_cycle;Signal;HPM_P1;HPM_P2
2022/02/06 00:00:11;;;;;;;12.63;5.83;;;;;;;1.65;87.73;142676.73;1749150;81;21076;-66
2022/02/06 00:02:43;;;;;;;12.50;6.67;;;;;;;1.69;87.75;142685.47;1713004;83;21064;-66
2022/02/06 00:05:11;;;;;;;14.75;6.87;;;;;;;1.71;87.58;142691.70;1748887;81;21033;-66
2022/02/06 00:07:37;;;;;;;13.60;7.12;;;;;;;1.72;87.56;142694.17;1684839;84;21019;-66
2022/02/06 00:10:05;;;;;;;15.72;7.70;;;;;;;1.75;87.51;142700.41;1684749;85;21569;-66
2022/02/06 00:12:33;;;;;;;16.82;7.42;;;;;;;1.80;87.41;142711.61;1706825;84;21000;-66
2022/02/06 00:15:03;;;;;;;18.20;8.20;;;;;;;1.83;87.23;142720.36;1749046;81;21028;-66
2022/02/06 00:17:31;;;;;;;15.80;7.47;;;;;;;1.85;87.04;142725.30;1711891;84;21067;-66
2022/02/06 00:19:58;;;;;;;17.25;8.63;;;;;;;1.86;86.99;142727.81;1774861;79;20995;-66
2022/02/06 00:22:30;;;;;;;17.55;8.55;;;;;;;1.87;86.90;142730.28;1774311;81;21027;-66
2022/02/06 00:25:47;;;;;;;16.73;8.43;;;;;;;1.89;86.75;142735.28;1757533;80;21483;-65
2022/02/06 00:27:42;;;;;;;14.15;8.05;;;;;;;1.91;86.74;142740.27;1728744;82;21538;-66
2022/02/06 00:30:10;;;;;;;17.80;8.23;;;;;;;1.90;86.62;142737.75;1711255;84;21012;-67
2022/02/06 00:32:39;;;;;;;16.82;9.00;;;;;;;1.88;86.47;142731.52;1748066;81;21028;-67
2022/02/06 00:40:57;;;;;;;15.35;7.90;;;;;;;1.88;86.43;142731.52;1751816;81;21005;-67
2022/02/06 00:43:02;;;;;;;19.35;8.13;;;;;;;1.84;86.28;142722.83;1770866;79;21028;-67
2022/02/06 00:45:30;;;;;;;19.73;9.10;;;;;;;1.81;86.35;142715.38;1774642;79;21513;-67
2022/02/06 00:47:56;;;;;;;20.17;8.58;;;;;;;1.79;86.44;142710.38;1774620;81;21012;-67
2022/02/06 00:50:23;;;;;;;16.20;7.83;;;;;;;1.79;86.54;142709.14;1774799;81;21044;-67
2022/02/06 00:53:02;;;;;;;16.57;8.20;;;;;;;1.79;86.65;142710.38;1750296;81;21110;-67
2022/02/06 00:55:19;;;;;;;15.90;7.85;;;;;;;1.77;86.65;142705.39;1747369;81;21009;-66
2022/02/06 00:57:45;;;;;;;15.68;8.40;;;;;;;1.76;86.75;142701.69;1713251;82;21024;-67
2022/02/06 01:00:13;;;;;;;19.30;8.33;;;;;;;1.77;86.80;142705.39;1749028;81;20985;-65
2022/02/06 01:02:40;;;;;;;14.70;7.78;;;;;;;1.78;86.79;142707.91;1711943;82;20969;-66
2022/02/06 01:05:07;;;;;;;16.57;7.65;;;;;;;1.79;86.84;142709.14;1774482;81;21020;-66
2022/02/06 01:07:36;;;;;;;12.00;7.50;;;;;;;1.81;86.85;142714.12;1774481;81;21008;-65
2022/02/06 01:10:05;;;;;;;14.05;7.17;;;;;;;1.78;86.80;142707.91;1774462;81;21063;-65
2022/02/06 01:12:34;;;;;;;14.00;6.55;;;;;;;1.78;86.84;142706.63;1761066;81;21004;-65
2022/02/06 01:15:04;;;;;;;14.13;6.85;;;;;;;1.72;86.97;142692.94;1712910;82;21032;-66
2022/02/06 01:17:41;;;;;;;13.93;7.33;;;;;;;1.71;87.10;142691.70;1748985;81;21017;-66
2022/02/06 01:20:12;;;;;;;14.75;7.47;;;;;;;1.67;87.25;142680.48;1749005;81;20989;-66
2022/02/06 01:22:36;;;;;;;13.53;6.80;;;;;;;1.65;87.37;142676.73;1758699;80;21024;-66
2022/02/06 01:25:08;;;;;;;17.80;6.55;;;;;;;1.65;87.57;142675.50;1783017;80;21031;-68
2022/02/06 01:27:44;;;;;;;13.68;6.60;;;;;;;1.65;87.69;142675.50;1787526;80;21054;-66
2022/02/06 01:30:39;;;;;;;15.13;7.28;;;;;;;1.67;87.77;142681.72;1786657;80;21516;-68
2022/02/06 01:32:42;;;;;;;13.50;6.45;;;;;;;1.67;87.79;142680.48;1768238;80;21048;-67
2022/02/06 01:35:11;;;;;;;14.13;7.75;;;;;;;1.65;87.92;142676.73;1724722;83;20985;-66
2022/02/06 01:37:41;;;;;;;15.55;6.95;;;;;;;1.63;88.05;142670.52;1722871;83;21513;-67
2022/02/06 01:40:09;;;;;;;14.98;6.20;;;;;;;1.63;88.18;142671.80;1716421;83;21066;-66
2022/02/06 01:42:47;;;;;;;12.13;6.65;;;;;;;1.63;88.25;142671.80;1707455;84;21487;-66
2022/02/06 02:28:56;;;;;;;11.57;7.25;;;;;;;1.62;89.62;142669.28;1642618;87;21059;-67
2022/02/06 02:44:58;;;;;;;12.50;7.33;;;;;;;1.61;90.05;142665.58;1659287;85;21075;-67
2022/02/06 02:47:18;;;;;;;13.20;6.65;;;;;;;1.63;90.12;142670.52;1651061;87;21106;-67
2022/02/06 02:49:55;;;;;;;13.95;6.75;;;;;;;1.66;90.13;142678.03;1650743;87;21071;-67
2022/02/06 02:55:03;;;;;;;14.85;6.85;;;;;;;1.66;90.06;142678.03;1686204;84;21039;-67
2022/02/06 02:57:30;;;;;;;13.30;6.62;;;;;;;1.64;90.11;142673.03;1686243;85;21040;-65
2022/02/06 03:00:32;;;;;;;14.00;6.65;;;;;;;1.64;90.27;142673.03;1655153;85;21007;-66
2022/02/06 03:02:24;;;;;;;10.65;6.85;;;;;;;1.61;90.24;142666.81;1639254;87;21015;-67
2022/02/06 03:04:55;;;;;;;12.28;6.37;;;;;;;1.59;90.36;142661.81;1633241;87;21067;-66
2022/02/06 03:07:19;;;;;;;9.68;5.92;;;;;;;1.58;90.45;142658.06;1650556;86;21086;-67
2022/02/06 03:09:47;;;;;;;12.25;5.90;;;;;;;1.56;90.55;142654.36;1680952;84;21071;-67
2022/02/06 03:12:17;;;;;;;16.82;6.97;;;;;;;1.55;90.62;142651.84;1676204;84;21109;-67
2022/02/06 03:14:52;;;;;;;12.93;6.05;;;;;;;1.54;90.65;142648.14;1650671;86;21058;-67
2022/02/06 03:17:31;;;;;;;13.47;6.83;;;;;;;1.50;90.75;142639.41;1652577;86;21065;-67
2022/02/06 03:19:53;;;;;;;13.70;7.37;;;;;;;1.48;90.87;142634.47;1677645;84;21176;-66
2022/02/06 03:22:19;;;;;;;12.05;6.50;;;;;;;1.46;91.01;142630.70;1688842;84;21567;-65
2022/02/06 03:24:43;;;;;;;13.55;6.97;;;;;;;1.47;91.12;142631.94;1688207;84;21042;-65
2022/02/06 03:27:08;;;;;;;13.68;6.35;;;;;;;1.49;91.21;142638.16;1689003;84;21111;-66
2022/02/06 03:29:35;;;;;;;18.55;7.15;;;;;;;1.54;91.17;142648.14;1671911;85;21214;-66
2022/02/06 03:32:02;;;;;;;15.80;6.30;;;;;;;1.56;91.04;142654.36;1653867;86;21535;-66
2022/02/06 03:34:29;;;;;;;9.43;6.22;;;;;;;1.54;91.03;142648.14;1653589;86;21026;-67
2022/02/06 03:36:56;;;;;;;13.00;6.92;;;;;;;1.54;91.06;142648.14;1653587;86;21030;-65
2022/02/06 03:39:23;;;;;;;12.10;6.78;;;;;;;1.58;91.07;142658.06;1662779;84;21070;-66
2022/02/06 03:42:06;;;;;;;14.20;7.62;;;;;;;1.62;91.04;142668.05;1688704;84;21587;-66
2022/02/06 03:44:29;;;;;;;12.98;7.15;;;;;;;1.62;90.91;142669.28;1689106;84;21496;-66
2022/02/06 03:47:18;;;;;;;15.38;7.70;;;;;;;1.68;90.89;142682.97;1688827;85;21050;-66
2022/02/06 03:49:28;;;;;;;17.75;9.75;;;;;;;1.70;90.77;142689.19;1680140;84;21054;-67
2022/02/06 03:51:48;;;;;;;20.12;9.28;;;;;;;1.72;90.71;142694.17;1653748;86;21119;-66
2022/02/06 03:54:15;;;;;;;14.63;8.18;;;;;;;1.73;90.56;142695.41;1653965;85;21135;-66
2022/02/06 03:56:44;;;;;;;18.75;8.53;;;;;;;1.75;90.52;142700.41;1653792;85;21559;-64
2022/02/06 03:59:11;;;;;;;15.18;8.15;;;;;;;1.74;90.50;142697.92;1671400;84;21039;-65
2022/02/06 04:01:38;;;;;;;18.90;8.93;;;;;;;1.76;90.50;142702.92;1667326;84;21109;-65
2022/02/06 04:04:04;;;;;;;16.15;8.65;;;;;;;1.78;90.40;142707.91;1653796;86;21583;-66
2022/02/06 04:06:31;;;;;;;13.62;6.72;;;;;;;1.83;90.36;142719.06;1667470;85;21022;-66
2022/02/06 04:08:58;;;;;;;11.50;6.72;;;;;;;1.82;90.16;142717.84;1689076;84;21085;-66
2022/02/06 04:11:47;;;;;;;14.68;7.20;;;;;;;1.81;90.14;142715.38;1688955;84;21077;-66
2022/02/06 04:14:17;;;;;;;14.98;7.30;;;;;;;1.80;90.11;142712.84;1689064;85;21049;-65
2022/02/06 04:16:42;;;;;;;12.35;6.60;;;;;;;1.78;90.11;142707.91;1678132;84;21063;-66
2022/02/06 04:19:22;;;;;;;13.10;7.15;;;;;;;1.77;90.07;142704.16;1650600;86;21054;-66
2022/02/06 04:21:45;;;;;;;12.07;6.55;;;;;;;1.76;90.24;142702.92;1650264;87;21667;-66
2022/02/06 04:24:12;;;;;;;12.43;6.50;;;;;;;1.76;90.23;142702.92;1657465;85;21516;-67
2022/02/06 04:26:40;;;;;;;16.37;7.20;;;;;;;1.78;90.19;142707.91;1686112;84;21231;-67
2022/02/06 04:29:07;;;;;;;14.87;7.05;;;;;;;1.73;90.14;142695.41;1677253;85;21476;-69
2022/02/06 04:31:37;;;;;;;14.45;7.67;;;;;;;1.69;90.33;142685.47;1665124;85;21074;-68
2022/02/06 04:34:03;;;;;;;12.30;6.47;;;;;;;1.71;90.48;142690.47;1650360;86;21536;-69
2022/02/06 04:36:37;;;;;;;11.00;6.50;;;;;;;1.70;90.43;142689.19;1650346;85;21063;-67
2022/02/06 04:39:30;;;;;;;16.90;7.72;;;;;;;1.71;90.52;142690.47;1650062;87;21585;-67
2022/02/06 04:53:03;;;;;;;16.42;8.18;;;;;;;1.81;90.40;142715.38;1616218;88;21081;-67
2022/02/06 05:22:09;;;;;;;15.43;7.20;;;;;;;1.92;89.67;142742.73;1685558;85;21534;-63
2022/02/06 05:32:19;;;;;;;15.58;7.20;;;;;;;1.82;89.82;142717.84;1685998;85;21067;-64
2022/02/06 05:34:40;;;;;;;15.72;7.33;;;;;;;1.83;89.80;142720.36;1672392;84;21106;-63
2022/02/06 05:37:07;;;;;;;17.15;7.72;;;;;;;1.84;89.85;142722.83;1655881;85;21043;-63
2022/02/06 05:39:34;;;;;;;13.35;7.20;;;;;;;1.86;89.78;142726.58;1686224;85;21031;-63
2022/02/06 05:42:01;;;;;;;13.48;8.15;;;;;;;1.82;89.73;142717.84;1686082;84;21184;-62
2022/02/06 05:44:28;;;;;;;14.03;8.83;;;;;;;1.82;89.85;142717.84;1680172;84;21055;-62
2022/02/06 05:46:54;;;;;;;15.70;7.47;;;;;;;1.84;89.80;142721.59;1650533;86;21094;-62
2022/02/06 05:49:22;;;;;;;16.35;7.87;;;;;;;1.85;89.84;142725.30;1650701;86;21583;-62
2022/02/06 05:51:48;;;;;;;18.17;7.87;;;;;;;1.88;89.85;142732.81;1650419;86;21051;-63
2022/02/06 05:54:16;;;;;;;14.43;8.20;;;;;;;1.90;89.78;142737.75;1660083;85;21052;-65
2022/02/06 05:56:42;;;;;;;15.72;8.45;;;;;;;1.93;89.69;142743.97;1686208;84;21483;-64
2022/02/06 05:59:09;;;;;;;12.88;7.65;;;;;;;1.97;89.74;142752.72;1685927;84;21549;-64
2022/02/06 06:01:36;;;;;;;16.17;8.10;;;;;;;2.01;89.50;142762.66;1686251;85;21035;-63
2022/02/06 06:04:03;;;;;;;14.65;8.60;;;;;;;2.01;89.46;142763.94;1684272;84;21087;-64
2022/02/06 06:06:31;;;;;;;15.85;8.20;;;;;;;2.03;89.45;142767.64;1650570;86;21066;-61
2022/02/06 06:08:59;;;;;;;12.73;8.65;;;;;;;2.06;89.36;142776.38;1650711;85;21071;-63
2022/02/06 06:11:26;;;;;;;14.28;8.48;;;;;;;2.09;89.32;142782.61;1664134;85;21039;-63
2022/02/06 06:13:53;;;;;;;14.85;8.65;;;;;;;2.10;89.20;142785.08;1653217;85;21085;-62
2022/02/06 06:16:22;;;;;;;14.85;9.30;;;;;;;2.12;89.14;142790.06;1675829;85;21504;-63
2022/02/06 06:18:50;;;;;;;16.93;9.45;;;;;;;2.13;89.09;142792.53;1661230;85;21069;-64
2022/02/06 06:21:19;;;;;;;16.32;10.03;;;;;;;2.13;89.05;142792.53;1623539;87;20993;-64
2022/02/06 06:23:45;;;;;;;19.32;10.90;;;;;;;2.15;89.04;142797.53;1653435;85;21171;-63
2022/02/06 06:26:16;;;;;;;21.10;10.90;;;;;;;2.19;88.94;142807.52;1655597;85;21020;-64
2022/02/06 06:28:41;;;;;;;17.87;10.90;;;;;;;2.19;88.75;142807.52;1632464;87;21581;-64
2022/02/06 06:31:08;;;;;;;17.85;10.48;;;;;;;2.15;88.83;142797.53;1629361;87;21028;-64
2022/02/06 06:33:37;;;;;;;19.87;11.93;;;;;;;2.15;88.90;142798.77;1649181;86;20966;-64
2022/02/06 06:36:05;;;;;;;20.52;12.80;;;;;;;2.10;88.96;142785.08;1647450;87;21017;-65
2022/02/06 06:38:33;;;;;;;19.82;11.88;;;;;;;2.10;89.09;142786.31;1648145;86;21159;-64
2022/02/06 06:41:01;;;;;;;20.57;12.10;;;;;;;2.10;89.09;142786.31;1646327;87;21360;-57
2022/02/06 06:43:28;;;;;;;24.05;12.23;;;;;;;2.10;89.18;142786.31;1649980;87;21041;-56
2022/02/06 06:45:57;;;;;;;22.05;12.05;;;;;;;2.13;89.27;142793.78;1650369;85;21048;-57
2022/02/06 06:48:24;;;;;;;21.97;13.55;;;;;;;2.18;89.20;142805.00;1648470;86;21533;-55
2022/02/06 06:50:50;;;;;;;20.45;12.47;;;;;;;2.22;89.27;142813.73;1649687;87;21145;-56
2022/02/06 06:53:17;;;;;;;21.62;12.93;;;;;;;2.29;89.08;142831.14;1649137;87;21026;-57
2022/02/06 06:55:50;;;;;;;22.02;11.57;;;;;;;2.31;88.96;142837.36;1649152;87;21082;-57
2022/02/06 06:58:18;;;;;;;26.62;11.85;;;;;;;2.33;88.96;142842.36;1664893;84;21083;-58
2022/02/06 07:03:24;;;;;;;16.32;10.63;;;;;;;2.45;88.75;142871.03;1629648;87;21199;-56
2022/02/06 07:05:52;;;;;;;20.00;11.30;;;;;;;2.49;88.64;142879.72;1649084;87;21621;-56
2022/02/06 07:08:19;;;;;;;24.77;11.85;;;;;;;2.51;88.44;142885.95;1647577;86;21004;-55
2022/02/06 07:10:48;;;;;;;19.62;11.78;;;;;;;2.53;88.33;142889.72;1655994;85;21058;-57
2022/02/06 07:13:17;;;;;;;24.27;11.83;;;;;;;2.58;88.19;142902.17;1652050;85;21012;-57
2022/02/06 07:15:45;;;;;;;20.12;11.25;;;;;;;2.60;88.07;142907.16;1626164;88;21055;-57
2022/02/06 07:18:11;;;;;;;22.87;11.43;;;;;;;2.62;87.81;142912.16;1652425;87;21517;-56
2022/02/06 07:20:38;;;;;;;21.23;12.20;;;;;;;2.63;87.91;142914.63;1654604;85;21052;-56
2022/02/06 07:23:09;;;;;;;20.85;12.25;;;;;;;2.71;87.64;142934.55;1627368;87;21306;-55
2022/02/06 07:25:39;;;;;;;22.55;13.25;;;;;;;2.79;87.42;142954.47;1629745;87;21037;-56
2022/02/06 07:28:14;;;;;;;19.77;12.00;;;;;;;2.94;87.30;142989.38;1651013;86;21024;-56
2022/02/06 07:30:34;;;;;;;25.40;12.63;;;;;;;3.05;86.85;143016.78;1661736;84;21032;-56
2022/02/06 07:33:01;;;;;;;20.65;12.28;;;;;;;3.20;86.47;143054.17;1624970;87;21066;-57
2022/02/06 07:35:28;;;;;;;21.50;11.05;;;;;;;3.37;85.67;143094.09;1635217;87;21012;-55
2022/02/06 07:37:56;;;;;;;19.90;10.63;;;;;;;3.43;85.03;143110.27;1628752;87;21110;-57
2022/02/06 07:40:23;;;;;;;19.10;10.50;;;;;;;3.46;84.62;143117.78;1653686;85;21013;-56
2022/02/06 07:42:51;;;;;;;17.98;10.03;;;;;;;3.57;84.49;143143.95;1658231;85;21052;-56
2022/02/06 07:45:20;;;;;;;16.97;9.80;;;;;;;3.62;83.64;143156.44;1658903;85;20996;-57
2022/02/06 07:47:49;;;;;;;16.87;10.00;;;;;;;3.60;83.21;143151.44;1626702;87;21132;-56
2022/02/06 07:50:16;;;;;;;18.37;10.23;;;;;;;3.59;83.25;143148.95;1652811;86;21015;-57
2022/02/06 07:52:44;;;;;;;19.55;9.65;;;;;;;3.59;82.86;143148.95;1626958;87;21103;-56
2022/02/06 07:55:11;;;;;;;19.32;8.85;;;;;;;3.56;82.71;143141.48;1653968;85;21546;-56
2022/02/06 07:57:38;;;;;;;19.25;9.40;;;;;;;3.54;82.58;143136.48;1628317;86;21054;-57
2022/02/06 08:00:07;;;;;;;17.25;9.20;;;;;;;3.52;82.41;143131.48;1617192;87;21510;-57
2022/02/06 08:02:43;;;;;;;17.67;10.05;;;;;;;3.52;82.20;143130.25;1617192;87;21036;-57
2022/02/06 08:05:10;;;;;;;15.38;9.30;;;;;;;3.51;82.32;143127.73;1626759;87;21060;-56
2022/02/06 08:07:42;;;;;;;19.67;9.90;;;;;;;3.52;82.45;143131.48;1633702;87;21116;-58
2022/02/06 08:10:09;;;;;;;20.97;9.53;;;;;;;3.61;82.30;143153.95;1634419;87;21518;-56
2022/02/06 08:12:44;;;;;;;18.70;9.80;;;;;;;3.70;82.01;143176.38;1625838;88;21594;-56
2022/02/06 08:15:07;;;;;;;19.45;9.80;;;;;;;3.74;81.72;143183.84;1635390;87;21549;-56
2022/02/06 08:17:38;;;;;;;18.48;10.45;;;;;;;3.75;81.57;143186.36;1633332;88;21155;-56
2022/02/06 08:20:10;;;;;;;18.37;10.90;;;;;;;3.76;81.32;143188.84;1651724;85;21015;-56
2022/02/06 08:22:37;;;;;;;18.32;10.28;;;;;;;3.78;81.21;143195.08;1616176;87;21013;-57
2022/02/06 08:25:06;;;;;;;18.40;10.25;;;;;;;3.80;80.93;143200.06;1619033;88;21035;-56
2022/02/06 08:27:33;;;;;;;18.35;9.75;;;;;;;3.80;80.77;143198.83;1621778;87;21031;-55
2022/02/06 08:30:00;;;;;;;19.87;10.18;;;;;;;3.79;80.63;143196.31;1626742;87;21037;-56
2022/02/06 08:32:28;;;;;;;17.62;9.83;;;;;;;3.77;80.57;143191.36;1626618;87;21033;-56
2022/02/06 08:34:56;;;;;;;17.52;10.48;;;;;;;3.75;80.41;143186.36;1628800;87;21053;-56
2022/02/06 08:37:23;;;;;;;18.50;10.50;;;;;;;3.71;80.44;143177.61;1626441;87;21093;-56
2022/02/06 08:39:52;;;;;;;16.15;9.98;;;;;;;3.69;80.47;143173.89;1626880;87;21116;-56
2022/02/06 08:42:19;;;;;;;16.07;9.95;;;;;;;3.70;80.74;143176.38;1626676;87;21065;-57
2022/02/06 08:44:48;;;;;;;17.67;10.35;;;;;;;3.76;80.49;143188.84;1628626;87;21171;-57
2022/02/06 08:47:18;;;;;;;16.50;9.03;;;;;;;3.82;80.19;143203.84;1640314;86;21092;-56
2022/02/06 08:49:46;;;;;;;20.40;9.28;;;;;;;3.84;79.89;143208.78;1600384;88;21169;-58
2022/02/06 08:52:14;;;;;;;15.85;9.00;;;;;;;3.77;79.55;143192.59;1598479;87;21103;-58
2022/02/06 08:54:41;;;;;;;14.45;8.43;;;;;;;3.75;79.43;143186.36;1600299;87;21100;-58
2022/02/06 08:57:21;;;;;;;18.87;9.50;;;;;;;3.74;79.33;143183.84;1598602;88;21559;-58
2022/02/06 08:59:44;;;;;;;17.02;9.58;;;;;;;3.74;79.26;143183.84;1600861;88;21049;-57
2022/02/06 09:02:12;;;;;;;15.58;7.87;;;;;;;3.80;79.00;143198.83;1598534;88;21040;-56
2022/02/06 09:04:38;;;;;;;17.23;8.45;;;;;;;3.85;78.86;143211.31;1598162;88;21069;-56
2022/02/06 09:07:05;;;;;;;15.13;7.65;;;;;;;3.92;78.40;143228.78;1598376;88;21072;-57
2022/02/06 09:09:33;;;;;;;23.30;10.08;;;;;;;3.97;78.04;143241.25;1600325;88;21514;-57
2022/02/06 09:12:01;;;;;;;15.93;8.03;;;;;;;3.97;77.74;143241.25;1626865;88;21068;-57
2022/02/06 09:14:28;;;;;;;17.45;8.20;;;;;;;3.95;77.50;143236.25;1603445;88;21065;-57
2022/02/06 09:16:56;;;;;;;17.23;8.73;;;;;;;3.97;77.22;143241.25;1598121;88;21609;-58
2022/02/06 09:19:23;;;;;;;15.75;7.70;;;;;;;3.99;77.07;143246.20;1595898;88;21071;-57
2022/02/06 09:21:50;;;;;;;17.60;8.23;;;;;;;4.02;76.62;143253.72;1620601;88;21021;-56
2022/02/06 09:24:20;;;;;;;16.67;7.97;;;;;;;4.01;76.61;143251.20;1622963;87;21044;-57
2022/02/06 09:26:48;;;;;;;16.27;8.03;;;;;;;4.10;76.44;143272.44;1620631;88;21058;-56
2022/02/06 09:29:16;;;;;;;15.63;8.10;;;;;;;4.21;76.11;143298.63;1623141;88;21084;-56
2022/02/06 09:31:48;;;;;;;13.88;7.53;;;;;;;4.26;75.50;143312.33;1608108;88;21064;-57
2022/02/06 09:36:39;;;;;;;14.95;7.90;;;;;;;4.36;74.36;143336.05;1623060;87;21060;-58
2022/02/06 09:39:11;;;;;;;15.13;7.42;;;;;;;4.37;73.93;143338.53;1623108;88;21510;-56
2022/02/06 09:41:47;;;;;;;14.10;7.53;;;;;;;4.35;73.89;143333.53;1620968;88;21085;-56
2022/02/06 09:44:16;;;;;;;10.93;6.30;;;;;;;4.36;73.83;143336.05;1605973;88;21506;-56
2022/02/06 09:46:46;;;;;;;15.28;7.10;;;;;;;4.38;73.59;143341.05;1591146;88;21051;-56
2022/02/06 09:49:14;;;;;;;15.63;7.53;;;;;;;4.48;73.33;143366.00;1629545;87;21449;-57
2022/02/06 09:51:44;;;;;;;13.30;7.40;;;;;;;4.54;72.82;143379.72;1631041;87;21536;-56
2022/02/06 09:54:12;;;;;;;14.75;7.58;;;;;;;4.64;72.74;143403.44;1631084;87;21067;-55
2022/02/06 09:56:44;;;;;;;13.93;7.80;;;;;;;4.76;71.67;143433.41;1610579;88;21050;-55
2022/02/06 09:59:20;;;;;;;13.10;6.75;;;;;;;4.84;71.24;143453.36;1631374;87;21253;-60
2022/02/06 10:01:54;;;;;;;12.60;6.83;;;;;;;4.92;70.65;143473.33;1631192;87;21098;-56
2022/02/06 10:04:26;;;;;;;15.48;7.62;;;;;;;5.03;70.20;143498.30;1631046;87;21572;-58
2022/02/06 10:07:06;;;;;;;10.70;6.17;;;;;;;5.19;69.61;143538.22;1631017;87;21042;-57
2022/02/06 10:09:53;;;;;;;12.23;5.75;;;;;;;5.35;68.22;143578.22;1631253;86;21063;-60
2022/02/06 10:12:21;;;;;;;13.72;6.70;;;;;;;5.50;67.90;143614.44;1605662;88;21047;-55
2022/02/06 10:14:51;;;;;;;13.50;6.62;;;;;;;5.58;67.50;143633.17;1598419;88;21040;-56
2022/02/06 10:17:23;;;;;;;14.87;8.10;;;;;;;5.65;67.04;143650.67;1593274;88;21060;-58
2022/02/06 10:19:55;;;;;;;14.95;7.97;;;;;;;5.64;67.04;143648.14;1620387;87;21064;-62
2022/02/06 10:22:39;;;;;;;14.93;7.85;;;;;;;5.66;67.37;143654.39;1619404;88;21068;-57
2022/02/06 10:25:06;;;;;;;15.00;7.78;;;;;;;5.69;66.76;143660.64;1596587;87;21628;-63
2022/02/06 10:30:42;;;;;;;15.25;7.00;;;;;;;5.69;66.38;143660.64;1610296;88;21052;-63
2022/02/06 10:33:18;;;;;;;15.75;7.95;;;;;;;5.75;66.03;143675.66;1599644;90;21064;-62
2022/02/06 10:35:54;;;;;;;12.82;6.67;;;;;;;5.86;65.07;143703.13;1578126;89;21130;-65
2022/02/06 10:38:26;;;;;;;12.10;6.15;;;;;;;5.86;64.79;143703.13;1587644;89;21025;-63
2022/02/06 10:41:16;;;;;;;11.12;5.08;;;;;;;5.85;64.96;143699.34;1614172;88;21141;-63
2022/02/06 10:44:04;;;;;;;14.55;6.12;;;;;;;5.85;64.54;143700.64;1577981;89;21048;-65
2022/02/06 10:46:45;;;;;;;12.90;5.85;;;;;;;6.00;63.99;143735.64;1614620;88;21177;-65
2022/02/06 10:49:16;;;;;;;13.50;6.35;;;;;;;6.26;63.98;143800.66;1597899;88;21063;-66
2022/02/06 10:52:00;;;;;;;13.22;5.80;;;;;;;6.49;62.89;143855.66;1597013;87;21044;-67
2022/02/06 10:54:38;;;;;;;12.95;5.87;;;;;;;6.52;62.52;143863.14;1584983;88;21695;-62
2022/02/06 10:57:12;;;;;;;13.58;5.70;;;;;;;6.41;62.33;143836.91;1585251;88;21086;-63
2022/02/06 10:59:49;;;;;;;12.90;6.00;;;;;;;6.42;62.49;143838.14;1621111;88;21590;-63
2022/02/06 11:02:26;;;;;;;12.75;6.15;;;;;;;6.43;62.34;143840.63;1618901;87;21558;-63
2022/02/06 11:05:30;;;;;;;13.58;5.83;;;;;;;6.48;62.25;143854.36;1615098;88;21076;-65
2022/02/06 11:07:57;;;;;;;12.90;6.35;;;;;;;6.50;62.25;143858.13;1601998;88;21499;-64
2022/02/06 11:10:31;;;;;;;15.68;5.87;;;;;;;6.46;62.20;143848.11;1613740;88;21081;-65
2022/02/06 11:13:05;;;;;;;11.08;5.28;;;;;;;6.42;62.17;143838.14;1603599;89;21097;-65
2022/02/06 11:15:41;;;;;;;16.52;5.95;;;;;;;6.30;62.26;143810.63;1604091;89;21062;-64
2022/02/06 11:18:20;;;;;;;16.05;5.72;;;;;;;6.15;62.63;143771.89;1603811;89;21576;-63
2022/02/06 11:21:02;;;;;;;16.05;6.12;;;;;;;5.96;63.01;143725.67;1661813;86;21560;-65
2022/02/06 11:23:51;;;;;;;12.58;6.03;;;;;;;5.81;63.63;143690.62;1669676;85;21084;-64
2022/02/06 11:26:25;;;;;;;15.10;6.00;;;;;;;5.68;64.15;143656.92;1665220;86;21550;-64
2022/02/06 11:28:55;;;;;;;12.43;6.40;;;;;;;5.57;64.59;143630.66;1665395;86;21170;-66
2022/02/06 11:31:22;;;;;;;12.75;5.92;;;;;;;5.56;64.91;143629.41;1669514;85;21504;-64
2022/02/06 11:33:50;;;;;;;14.78;6.35;;;;;;;5.49;65.21;143611.92;1669612;85;21027;-65
2022/02/06 11:36:22;;;;;;;14.83;6.90;;;;;;;5.41;65.64;143593.19;1664956;86;21081;-64
2022/02/06 11:45:11;;;;;;;15.50;6.70;;;;;;;5.16;66.70;143530.75;1668829;85;21071;-62
2022/02/06 11:47:51;;;;;;;15.25;6.92;;;;;;;4.96;67.43;143483.33;1663329;86;21637;-62
2022/02/06 11:50:18;;;;;;;13.90;6.95;;;;;;;4.73;69.57;143425.88;1668857;86;21136;-66
2022/02/06 11:52:57;;;;;;;15.40;7.33;;;;;;;4.53;70.65;143377.25;1669235;86;21099;-65
2022/02/06 11:55:45;;;;;;;12.82;6.67;;;;;;;4.40;72.33;143346.05;1669155;86;21102;-66
2022/02/06 11:58:31;;;;;;;19.60;8.05;;;;;;;4.39;73.56;143343.53;1643759;86;21587;-63
2022/02/06 12:01:15;;;;;;;14.98;7.75;;;;;;;4.43;74.42;143352.28;1637869;86;21052;-67
2022/02/06 12:04:04;;;;;;;12.47;6.70;;;;;;;4.45;74.59;143358.53;1665351;86;21549;-65
2022/02/06 12:06:54;;;;;;;15.85;8.38;;;;;;;4.43;74.77;143353.53;1669061;85;21063;-64
2022/02/06 12:09:29;;;;;;;16.10;8.25;;;;;;;4.37;74.95;143338.53;1669587;85;21545;-66
2022/02/06 12:12:12;;;;;;;18.17;7.78;;;;;;;4.23;75.65;143303.63;1669351;85;21163;-62
2022/02/06 12:14:47;;;;;;;12.33;6.92;;;;;;;4.11;76.89;143276.14;1654128;85;21041;-62
2022/02/06 12:17:22;;;;;;;16.75;6.83;;;;;;;3.94;78.65;143233.72;1637752;86;21178;-64
2022/02/06 12:20:29;;;;;;;19.35;8.10;;;;;;;3.95;80.15;143236.25;1609465;86;21051;-65
2022/02/06 12:22:55;;;;;;;15.20;7.08;;;;;;;4.05;81.19;143259.97;1654191;85;21095;-64
2022/02/06 12:25:31;;;;;;;16.48;8.03;;;;;;;4.16;81.58;143287.39;1655029;85;21111;-62
2022/02/06 12:28:23;;;;;;;18.77;8.28;;;;;;;4.25;81.52;143308.56;1653593;87;21527;-67
2022/02/06 12:31:19;;;;;;;21.50;9.93;;;;;;;4.35;80.95;143333.53;1653984;85;21040;-62
2022/02/06 12:33:56;;;;;;;26.95;11.05;;;;;;;4.42;79.18;143349.77;1653957;85;21068;-68
2022/02/06 12:39:26;;;;;;;26.42;12.25;;;;;;;4.49;77.75;143367.25;1654163;85;21043;-66
2022/02/06 12:41:55;;;;;;;26.90;13.18;;;;;;;4.52;77.13;143375.95;1654403;85;21040;-65
2022/02/06 12:44:27;;;;;;;27.70;12.98;;;;;;;4.53;76.45;143378.48;1660827;85;21020;-66
2022/02/06 12:46:59;;;;;;;19.75;11.97;;;;;;;4.53;75.83;143378.48;1681600;85;21053;-63
2022/02/06 12:49:34;;;;;;;;;;;;;;;4.45;75.19;143358.53;1681603;85;21084;-63
2022/02/06 12:52:03;;;;;;;22.70;10.48;;;;;;;4.40;74.64;143346.05;1681267;84;20093;-65
2022/02/06 12:54:33;;;;;;;17.60;9.50;;;;;;;4.34;74.07;143331.05;1681404;85;21100;-67
2022/02/06 12:57:00;;;;;;;26.97;9.40;;;;;;;4.29;74.15;143318.56;1677512;85;21071;-65
2022/02/06 12:59:31;;;;;;;14.13;8.73;;;;;;;4.28;74.10;143316.09;1681060;84;21100;-65
2022/02/06 13:01:59;;;;;;;20.35;9.45;;;;;;;4.19;73.81;143293.62;1681168;85;21522;-65
2022/02/06 13:04:30;;;;;;;16.70;7.83;;;;;;;4.11;73.77;143276.14;1681374;85;21056;-64
2022/02/06 13:07:03;;;;;;;17.50;8.80;;;;;;;4.03;73.52;143256.20;1679569;85;21531;-66
2022/02/06 13:09:45;;;;;;;17.45;8.65;;;;;;;4.01;73.61;143251.20;1681090;85;21554;-65
2022/02/06 13:23:02;;;;;;;16.40;8.83;;;;;;;3.96;73.30;143238.72;1674257;85;21115;-66
2022/02/06 13:25:49;;;;;;;16.52;8.63;;;;;;;3.97;73.05;143241.25;1678328;84;21085;-64
2022/02/06 13:36:42;;;;;;;16.90;8.50;;;;;;;3.98;72.39;143243.72;1706705;84;21017;-67
2022/02/06 13:39:13;;;;;;;14.47;8.48;;;;;;;3.94;72.41;143233.72;1704436;84;21020;-66
2022/02/06 13:41:40;;;;;;;15.90;8.50;;;;;;;3.95;72.43;143236.25;1693706;84;21084;-65
2022/02/06 13:44:18;;;;;;;17.82;8.30;;;;;;;3.98;72.34;143243.72;1680430;84;21087;-62
2022/02/06 13:46:46;;;;;;;20.45;7.72;;;;;;;4.00;72.42;143247.48;1688300;84;21052;-64
2022/02/06 13:49:13;;;;;;;15.35;8.73;;;;;;;4.02;72.11;143252.44;1704441;83;21036;-65
2022/02/06 13:51:50;;;;;;;13.58;7.22;;;;;;;4.02;71.95;143253.72;1704449;84;21075;-68
2022/02/06 13:54:19;;;;;;;14.98;7.10;;;;;;;4.07;71.61;143264.91;1699109;84;21067;-66
2022/02/06 13:56:49;;;;;;;12.88;6.90;;;;;;;4.16;70.83;143287.39;1678833;84;21043;-63
2022/02/06 13:59:19;;;;;;;14.68;7.47;;;;;;;4.24;70.34;143307.34;1690031;84;21064;-65
2022/02/06 14:01:52;;;;;;;12.60;7.15;;;;;;;4.33;69.65;143329.81;1703241;84;21554;-65
2022/02/06 14:04:35;;;;;;;13.25;6.95;;;;;;;4.42;69.12;143351.00;1706709;84;21079;-67
2022/02/06 14:07:10;;;;;;;12.55;7.25;;;;;;;4.53;68.17;143378.48;1706748;84;21521;-66